Time;durP1;ratioP1;P1;durP2;ratioP2;P2;SDS_P1;SDS_P2;PMS_P1;PMS_P2;Temp;Humidity;BMP_temperature;BMP_pressure;BME280_temperature;BME280_humidity;BME280_pressure;Samples;Min_cycle;Max_cycle;Signal;HPM_P1;HPM_P2
2022/12/27 00:00:03;;;;;;;43.50;35.47;;;;;;;4.80;100.00;102197.25;2112894;28;20311;-63
2022/12/27 00:01:09;;;;;;;43.80;35.50;;;;;;;4.81;100.00;102191.41;2114222;28;20194;-63
2022/12/27 00:02:10;;;;;;;42.25;34.53;;;;;;;4.82;100.00;102178.47;2113711;28;20165;-63
2022/12/27 00:03:11;;;;;;;46.13;38.00;;;;;;;4.82;100.00;102179.25;2106759;28;20187;-63
2022/12/27 00:04:11;;;;;;;42.78;35.63;;;;;;;4.05;100.00;102055.78;2114329;28;20421;-63
2022/12/27 00:05:13;;;;;;;44.63;38.37;;;;;;;4.84;100.00;102168.72;2115466;28;20197;-63
2022/12/27 00:06:19;;;;;;;51.05;40.08;;;;;;;4.24;100.00;102064.88;2109281;28;20189;-63
2022/12/27 00:07:20;;;;;;;46.75;38.33;;;;;;;4.87;100.00;102178.97;2112888;28;20192;-63
2022/12/27 00:08:20;;;;;;;50.80;42.50;;;;;;;4.94;100.00;102170.94;2115324;28;20200;-63
2022/12/27 00:09:21;;;;;;;55.27;44.77;;;;;;;4.95;100.00;102164.28;2115208;28;20212;-63
2022/12/27 00:10:22;;;;;;;47.13;38.53;;;;;;;4.98;100.00;102173.75;2115154;28;20574;-63
2022/12/27 00:11:25;;;;;;;49.30;40.03;;;;;;;5.01;100.00;102167.53;2114977;28;20187;-63
2022/12/27 00:12:25;;;;;;;50.42;41.22;;;;;;;5.02;100.00;102166.41;2114384;28;20242;-63
2022/12/27 00:13:26;;;;;;;41.53;35.63;;;;;;;4.96;100.00;102157.63;2107362;28;20185;-63
2022/12/27 00:14:26;;;;;;;43.30;35.30;;;;;;;5.01;100.00;102165.59;2115329;28;20195;-63
2022/12/27 00:15:27;;;;;;;45.10;35.40;;;;;;;5.04;100.00;102162.13;2108891;28;20197;-63
2022/12/27 00:16:28;;;;;;;43.73;35.80;;;;;;;4.64;100.00;102092.91;2112293;28;20193;-63
2022/12/27 00:17:29;;;;;;;44.65;36.67;;;;;;;4.76;100.00;102114.75;2115341;28;20286;-63
2022/12/27 00:18:29;;;;;;;42.30;36.67;;;;;;;4.96;100.00;102138.38;2112603;28;20186;-63
2022/12/27 00:19:29;;;;;;;42.63;35.23;;;;;;;5.06;100.00;102156.25;2115158;28;20208;-63
2022/12/27 00:20:30;;;;;;;45.67;34.10;;;;;;;5.06;100.00;102148.81;2114529;28;20238;-63
2022/12/27 00:21:31;;;;;;;43.83;32.07;;;;;;;5.07;100.00;102149.63;2106511;28;20210;-63
2022/12/27 00:22:31;;;;;;;41.40;32.17;;;;;;;5.04;100.00;102151.16;2106491;28;20207;-63
2022/12/27 00:23:38;;;;;;;41.10;32.40;;;;;;;5.03;100.00;102155.03;2107276;28;20194;-63
2022/12/27 00:24:39;;;;;;;40.22;30.55;;;;;;;5.02;100.00;102152.66;2115087;28;20199;-63
2022/12/27 00:25:39;;;;;;;38.90;31.00;;;;;;;4.97;100.00;102155.69;2115272;28;20714;-63
2022/12/27 00:26:40;;;;;;;39.83;32.80;;;;;;;4.51;100.00;102104.38;2115177;27;20236;-63
2022/12/27 00:27:41;;;;;;;41.05;32.50;;;;;;;4.94;100.00;102150.88;2112465;28;20194;-63
2022/12/27 00:28:42;;;;;;;39.77;32.97;;;;;;;4.91;100.00;102148.84;2108167;28;20253;-63
2022/12/27 00:29:42;;;;;;;45.00;33.88;;;;;;;4.89;100.00;102157.47;2114367;28;20205;-63
2022/12/27 00:30:43;;;;;;;41.73;33.93;;;;;;;4.09;100.00;102038.25;2106980;28;20161;-63
2022/12/27 00:31:43;;;;;;;38.67;32.83;;;;;;;4.79;100.00;102163.50;2106657;28;20226;-63
2022/12/27 00:32:43;;;;;;;43.27;33.33;;;;;;;4.80;100.00;102169.78;2112925;28;20600;-63
2022/12/27 00:33:46;;;;;;;44.50;34.20;;;;;;;4.81;100.00;102169.44;2115024;28;20569;-63
2022/12/27 00:34:46;;;;;;;40.58;32.83;;;;;;;4.78;100.00;102169.34;2110569;28;20200;-64
2022/12/27 00:35:47;;;;;;;41.07;33.13;;;;;;;4.76;100.00;102172.44;2106766;28;20189;-63
2022/12/27 00:36:47;;;;;;;40.80;32.90;;;;;;;4.75;100.00;102168.09;2108788;28;20182;-63
2022/12/27 00:37:47;;;;;;;38.27;32.13;;;;;;;4.75;100.00;102168.09;2115109;28;20196;-63
2022/12/27 00:38:49;;;;;;;40.83;33.83;;;;;;;4.76;100.00;102166.13;2115133;28;20259;-63
2022/12/27 00:39:49;;;;;;;42.67;35.42;;;;;;;4.76;100.00;102174.38;2106929;28;20205;-63
2022/12/27 00:40:50;;;;;;;40.47;33.73;;;;;;;4.76;100.00;102174.38;2106685;28;20210;-63
2022/12/27 00:41:50;;;;;;;41.60;33.67;;;;;;;4.74;100.00;102168.44;2112234;28;20192;-63
2022/12/27 00:42:51;;;;;;;40.17;32.43;;;;;;;4.75;100.00;102173.59;2109924;28;20184;-63
2022/12/27 00:43:51;;;;;;;43.10;34.57;;;;;;;4.75;100.00;102170.84;2109985;28;20198;-63
2022/12/27 00:44:51;;;;;;;43.07;33.17;;;;;;;4.77;100.00;102174.03;2115034;28;20625;-63
2022/12/27 00:45:52;;;;;;;41.90;34.17;;;;;;;4.78;100.00;102174.84;2113856;28;20539;-63
2022/12/27 00:46:53;;;;;;;40.90;34.83;;;;;;;4.77;100.00;102173.25;2106826;28;20252;-63
2022/12/27 00:47:53;;;;;;;43.10;34.40;;;;;;;4.77;100.00;102178.75;2106708;28;20183;-63
2022/12/27 00:48:54;;;;;;;44.07;35.73;;;;;;;4.78;100.00;102175.63;2108704;28;20216;-63
2022/12/27 00:49:54;;;;;;;46.80;35.47;;;;;;;4.79;100.00;102177.22;2108949;28;20583;-63
2022/12/27 00:51:00;;;;;;;44.63;36.07;;;;;;;4.82;100.00;102178.47;2106643;28;20640;-63
2022/12/27 00:52:01;;;;;;;43.78;35.35;;;;;;;4.81;100.00;102179.59;2106225;28;20193;-63
2022/12/27 00:53:01;;;;;;;47.40;36.97;;;;;;;4.24;100.00;102100.56;2106274;28;20212;-63
2022/12/27 00:54:02;;;;;;;49.63;38.97;;;;;;;4.73;100.00;102178.63;2109376;28;20280;-63
2022/12/27 00:55:03;;;;;;;38.73;33.90;;;;;;;4.67;100.00;102182.81;2114928;28;20260;-63
2022/12/27 00:56:14;;;;;;;42.55;34.75;;;;;;;4.69;100.00;102177.78;2115268;28;20188;-63
2022/12/27 00:57:14;;;;;;;47.22;39.42;;;;;;;4.74;100.00;102177.50;2106721;28;20248;-63
2022/12/27 00:58:15;;;;;;;57.33;45.47;;;;;;;4.77;100.00;102178.75;2115179;28;20176;-63
2022/12/27 00:59:15;;;;;;;50.63;39.83;;;;;;;4.77;100.00;102184.25;2114873;28;20186;-63
2022/12/27 01:00:16;;;;;;;43.43;35.93;;;;;;;4.80;100.00;102178.00;2108850;28;20261;-63
2022/12/27 01:01:19;;;;;;;46.20;37.47;;;;;;;4.43;100.00;102138.25;2111049;28;20219;-63
2022/12/27 01:02:19;;;;;;;61.63;44.92;;;;;;;4.84;100.00;102179.72;2114722;28;20651;-63
2022/12/27 01:03:19;;;;;;;83.53;61.77;;;;;;;4.82;100.00;102171.00;2122466;27;20645;-63
2022/12/27 01:04:20;;;;;;;71.80;56.83;;;;;;;4.79;100.00;102179.97;2120879;27;20174;-63
2022/12/27 01:05:21;;;;;;;63.40;50.10;;;;;;;4.82;100.00;102178.47;2106926;28;20213;-63
2022/12/27 01:06:24;;;;;;;44.80;37.00;;;;;;;4.86;100.00;102182.06;2115115;28;20187;-63
2022/12/27 01:07:25;;;;;;;45.28;37.20;;;;;;;4.89;100.00;102179.44;2115153;28;20223;-63
2022/12/27 01:08:25;;;;;;;46.43;37.63;;;;;;;4.85;100.00;102166.75;2114770;28;20676;-63
2022/12/27 01:09:26;;;;;;;46.77;37.23;;;;;;;4.75;100.00;102148.88;2114728;28;20266;-63
2022/12/27 01:10:26;;;;;;;44.57;37.00;;;;;;;4.81;100.00;102152.13;2114807;28;20197;-63
2022/12/27 01:11:27;;;;;;;47.73;37.63;;;;;;;4.66;100.00;102118.06;2115135;27;20226;-63
2022/12/27 01:12:28;;;;;;;53.83;40.63;;;;;;;5.02;100.00;102175.41;2112151;28;20192;-63
2022/12/27 01:13:29;;;;;;;61.40;49.63;;;;;;;4.97;100.00;102177.66;2108637;27;20660;-63
2022/12/27 01:14:29;;;;;;;49.40;41.73;;;;;;;5.00;100.00;102176.94;2117626;27;20181;-63
2022/12/27 01:15:29;;;;;;;47.50;37.80;;;;;;;5.07;100.00;102182.59;2106599;28;20260;-63
2022/12/27 01:16:31;;;;;;;57.57;44.40;;;;;;;4.74;100.00;102130.81;2113654;28;20196;-63
2022/12/27 01:17:31;;;;;;;64.78;48.75;;;;;;;5.08;100.00;102165.75;2114131;28;20244;-63
2022/12/27 01:18:32;;;;;;;61.40;48.07;;;;;;;4.66;100.00;102120.81;2118980;27;20721;-63
2022/12/27 01:19:36;;;;;;;54.40;44.40;;;;;;;4.99;100.00;102165.16;2113382;27;20256;-63
2022/12/27 01:20:37;;;;;;;58.85;46.47;;;;;;;5.01;100.00;102164.78;2109357;28;20450;-63
2022/12/27 01:21:37;;;;;;;52.30;44.03;;;;;;;5.08;100.00;102171.22;2112458;28;20181;-63
2022/12/27 01:22:38;;;;;;;53.40;43.10;;;;;;;5.19;100.00;102172.25;2106606;28;20174;-63
2022/12/27 01:23:39;;;;;;;50.23;41.20;;;;;;;5.25;100.00;102173.59;2114860;28;20212;-63
2022/12/27 01:24:40;;;;;;;52.55;44.03;;;;;;;5.27;100.00;102167.72;2114652;28;20197;-63
2022/12/27 01:25:40;;;;;;;53.40;43.90;;;;;;;5.31;100.00;102174.91;2114846;28;20181;-63
2022/12/27 01:26:41;;;;;;;55.67;44.40;;;;;;;5.33;100.00;102180.06;2109032;28;20192;-63
2022/12/27 01:27:41;;;;;;;53.67;43.73;;;;;;;5.32;100.00;102173.75;2106349;28;20180;-63
2022/12/27 01:28:42;;;;;;;52.53;42.07;;;;;;;5.35;100.00;102169.47;2106310;28;20623;-63
2022/12/27 01:29:42;;;;;;;51.30;42.97;;;;;;;5.41;100.00;102170.78;2112761;28;20200;-63
2022/12/27 01:30:43;;;;;;;51.77;43.17;;;;;;;5.41;100.00;102171.59;2113610;28;20182;-63
2022/12/27 01:31:43;;;;;;;55.53;43.90;;;;;;;4.82;100.00;102079.59;2106315;28;20206;-63
2022/12/27 01:32:44;;;;;;;61.83;45.73;;;;;;;5.48;100.00;102173.72;2113255;28;20532;-63
2022/12/27 01:33:44;;;;;;;55.67;45.57;;;;;;;5.34;100.00;102148.66;2114796;28;20193;-63
2022/12/27 01:34:45;;;;;;;59.97;46.43;;;;;;;5.49;100.00;102165.06;2114609;28;20212;-63
2022/12/27 01:35:46;;;;;;;56.23;45.37;;;;;;;4.96;100.00;102102.66;2110034;28;20186;-63
2022/12/27 01:36:46;;;;;;;55.50;44.28;;;;;;;5.55;100.00;102160.88;2106212;28;20189;-63
2022/12/27 01:37:47;;;;;;;52.17;43.57;;;;;;;4.90;100.00;102051.91;2107873;28;20169;-63
2022/12/27 01:38:49;;;;;;;49.50;42.63;;;;;;;5.51;100.00;102156.47;2112811;28;20702;-63
2022/12/27 01:39:49;;;;;;;50.58;42.60;;;;;;;5.57;100.00;102161.34;2113119;28;20182;-63
2022/12/27 01:40:49;;;;;;;50.83;40.73;;;;;;;5.47;100.00;102144.59;2114763;28;20194;-63
2022/12/27 01:43:18;;;;;;;55.05;41.92;;;;;;;5.52;100.00;102161.63;2106213;28;20173;-63
2022/12/27 01:44:37;;;;;;;50.33;41.25;;;;;;;5.43;100.00;102157.50;2108680;28;20727;-63
2022/12/27 01:45:37;;;;;;;51.63;42.47;;;;;;;5.49;100.00;102161.53;2106071;28;20189;-63
2022/12/27 01:46:38;;;;;;;50.80;40.67;;;;;;;5.39;100.00;102138.16;2114129;28;20643;-63
2022/12/27 01:47:57;;;;;;;48.07;39.17;;;;;;;5.51;100.00;102156.47;2114666;28;20196;-63
2022/12/27 01:48:58;;;;;;;49.17;39.22;;;;;;;5.56;100.00;102150.69;2107988;28;20170;-63
2022/12/27 01:50:06;;;;;;;50.77;38.70;;;;;;;5.54;100.00;102153.78;2122175;27;20215;-63
2022/12/27 01:51:09;;;;;;;46.35;37.63;;;;;;;5.58;100.00;102156.59;2121433;27;20171;-63
2022/12/27 01:52:10;;;;;;;45.72;37.63;;;;;;;5.57;100.00;102146.78;2107257;28;20481;-63
2022/12/27 01:53:26;;;;;;;48.63;38.47;;;;;;;5.41;100.00;102113.06;2105182;28;20183;-63
2022/12/27 01:54:27;;;;;;;43.63;35.65;;;;;;;5.08;100.00;102055.03;2108682;28;20209;-63
2022/12/27 01:55:39;;;;;;;44.63;35.90;;;;;;;5.64;100.00;102144.19;2114640;27;20174;-63
2022/12/27 01:56:40;;;;;;;45.92;34.75;;;;;;;5.62;100.00;102144.53;2108176;28;20194;-63
2022/12/27 01:57:41;;;;;;;40.93;33.73;;;;;;;5.63;100.00;102137.06;2106133;28;20178;-63
2022/12/27 01:58:52;;;;;;;43.65;33.30;;;;;;;5.60;100.00;102144.09;2105902;28;20315;-63
2022/12/27 01:59:52;;;;;;;44.03;34.05;;;;;;;5.58;100.00;102135.41;2112463;28;20663;-63
2022/12/27 02:00:53;;;;;;;39.30;33.30;;;;;;;5.63;100.00;102137.06;2114371;28;20615;-63
2022/12/27 02:01:54;;;;;;;43.60;35.57;;;;;;;5.64;100.00;102135.94;2112220;28;20282;-63
2022/12/27 02:02:55;;;;;;;42.47;33.70;;;;;;;5.43;100.00;102110.75;2105611;28;20562;-63
2022/12/27 02:04:03;;;;;;;39.75;33.95;;;;;;;5.54;100.00;102126.28;2106129;28;20175;-63
2022/12/27 02:05:07;;;;;;;42.75;34.30;;;;;;;5.34;100.00;102090.94;2114010;28;20185;-63
2022/12/27 02:06:10;;;;;;;41.60;33.05;;;;;;;5.56;100.00;102132.25;2106092;28;20185;-63
2022/12/27 02:07:11;;;;;;;45.42;35.45;;;;;;;5.56;100.00;102128.69;2106158;28;20702;-63
2022/12/27 02:08:40;;;;;;;44.80;33.37;;;;;;;5.56;100.00;102128.69;2105982;28;20178;-63
2022/12/27 02:09:48;;;;;;;44.38;33.25;;;;;;;5.58;100.00;102126.34;2106074;28;20213;-63
2022/12/27 02:10:49;;;;;;;43.97;32.55;;;;;;;5.60;100.00;102138.59;2108367;28;20166;-63
2022/12/27 02:11:55;;;;;;;39.85;32.33;;;;;;;5.12;100.00;102053.19;2113836;28;20269;-63
2022/12/27 02:12:57;;;;;;;41.70;31.55;;;;;;;5.49;100.00;102126.59;2106484;28;20174;-63
2022/12/27 02:13:57;;;;;;;41.28;31.33;;;;;;;5.52;100.00;102142.38;2106024;28;20198;-63
2022/12/27 02:14:58;;;;;;;42.37;32.37;;;;;;;5.53;100.00;102127.47;2112250;28;20188;-63
2022/12/27 02:15:58;;;;;;;39.03;30.90;;;;;;;5.49;100.00;102128.56;2110155;28;20545;-63
2022/12/27 02:17:02;;;;;;;43.63;31.47;;;;;;;5.60;100.00;102129.56;2106119;28;20252;-63
2022/12/27 02:18:03;;;;;;;42.08;33.88;;;;;;;5.53;100.00;102121.19;2105788;28;20190;-63
2022/12/27 02:19:10;;;;;;;39.07;32.03;;;;;;;5.55;100.00;102127.09;2105933;28;20216;-63
2022/12/27 02:20:16;;;;;;;43.47;31.52;;;;;;;5.55;100.00;102132.59;2113545;28;20667;-63
2022/12/27 02:22:04;;;;;;;39.47;32.30;;;;;;;5.52;100.00;102127.81;2113885;28;20200;-63
2022/12/27 02:24:45;;;;;;;38.50;30.65;;;;;;;5.59;100.00;102114.22;2092044;28;20186;-63
2022/12/27 02:25:57;;;;;;;38.63;31.53;;;;;;;5.58;100.00;102112.59;2096772;28;20187;-63
2022/12/27 02:27:26;;;;;;;42.90;32.35;;;;;;;5.61;100.00;102111.91;2096585;28;20684;-63
2022/12/27 02:28:45;;;;;;;42.17;32.70;;;;;;;5.60;100.00;102118.56;2071399;28;20680;-63
2022/12/27 02:29:52;;;;;;;39.30;31.23;;;;;;;5.56;100.00;102107.50;2109348;28;20211;-63
2022/12/27 02:31:04;;;;;;;37.80;31.52;;;;;;;5.61;100.00;102114.66;2110463;28;20186;-63
2022/12/27 02:32:05;;;;;;;39.38;32.28;;;;;;;5.61;100.00;102109.94;2105345;28;20332;-63
2022/12/27 02:33:17;;;;;;;36.80;31.27;;;;;;;5.59;100.00;102120.50;2105659;28;20182;-63
2022/12/27 02:34:24;;;;;;;37.70;32.15;;;;;;;5.55;100.00;102107.84;2105663;28;20258;-63
2022/12/27 02:35:38;;;;;;;39.97;34.03;;;;;;;5.52;100.00;102109.38;2109014;28;20189;-63
2022/12/27 02:36:39;;;;;;;46.28;36.90;;;;;;;5.48;100.00;102105.75;2114170;28;20237;-63
2022/12/27 02:38:15;;;;;;;51.95;38.58;;;;;;;5.42;100.00;102107.19;2111586;28;20592;-63
2022/12/27 02:39:18;;;;;;;43.67;35.33;;;;;;;5.24;100.00;102086.78;2069636;28;20208;-63
2022/12/27 02:53:15;;;;;;;44.50;36.13;;;;;;;5.34;100.00;102096.44;2108324;28;20184;-63
2022/12/27 02:54:16;;;;;;;46.95;36.88;;;;;;;5.31;100.00;102092.44;2105647;28;20200;-63
2022/12/27 02:57:44;;;;;;;48.55;38.08;;;;;;;5.30;100.00;102087.31;2108054;28;20169;-63
2022/12/27 02:59:22;;;;;;;42.90;36.53;;;;;;;5.32;100.00;102082.22;2114052;28;20189;-63
2022/12/27 03:03:40;;;;;;;44.58;35.55;;;;;;;5.36;100.00;102080.34;2108022;28;20201;-63
2022/12/27 03:04:56;;;;;;;44.78;35.47;;;;;;;5.38;100.00;102086.31;2113678;28;20710;-63
2022/12/27 03:08:02;;;;;;;44.33;35.40;;;;;;;5.20;100.00;102060.41;2105758;28;20197;-63
2022/12/27 03:15:56;;;;;;;54.90;37.63;;;;;;;5.19;100.00;102089.81;2112460;28;20174;-63
2022/12/27 03:17:07;;;;;;;48.58;36.92;;;;;;;5.03;100.00;102072.59;2109861;28;20213;-63
2022/12/27 03:18:20;;;;;;;46.33;36.70;;;;;;;5.13;100.00;102085.75;2105596;28;20188;-63
2022/12/27 03:26:31;;;;;;;46.25;36.33;;;;;;;5.18;100.00;102090.19;2114149;28;20193;-63
2022/12/27 03:27:35;;;;;;;44.78;37.22;;;;;;;4.71;100.00;102018.91;2114086;28;20669;-63
2022/12/27 03:33:13;;;;;;;45.75;36.28;;;;;;;5.23;100.00;102087.16;2108956;28;20211;-63
2022/12/27 03:34:31;;;;;;;46.17;37.22;;;;;;;5.26;100.00;102086.44;2104374;28;20219;-63
2022/12/27 03:35:37;;;;;;;46.58;36.30;;;;;;;5.27;100.00;102090.75;2111122;28;20181;-63
2022/12/27 03:38:01;;;;;;;47.42;36.85;;;;;;;5.28;100.00;102073.91;2112143;28;20260;-63
2022/12/27 03:39:43;;;;;;;41.92;36.45;;;;;;;5.31;100.00;102075.16;2114045;28;20739;-63
2022/12/27 03:43:41;;;;;;;44.97;35.95;;;;;;;5.44;100.00;102073.84;2085851;28;20685;-63
2022/12/27 03:44:42;;;;;;;45.77;35.30;;;;;;;5.45;100.00;102067.19;2087869;28;20659;-63
2022/12/27 03:46:42;;;;;;;45.27;36.80;;;;;;;5.42;100.00;102078.91;2087555;28;20220;-63
2022/12/27 03:47:15;;;;;;;44.72;37.75;;;;;;;5.29;100.00;102074.72;2101759;28;20584;-63
2022/12/27 03:48:21;;;;;;;45.80;38.37;;;;;;;5.24;100.00;102078.53;2107774;28;20206;-63
2022/12/27 03:49:34;;;;;;;45.90;37.83;;;;;;;5.19;100.00;102086.28;2110560;28;20226;-63
2022/12/27 03:50:43;;;;;;;53.80;42.33;;;;;;;5.18;100.00;102087.44;2113891;28;20639;-63
2022/12/27 03:51:48;;;;;;;56.20;45.70;;;;;;;5.15;100.00;102079.91;2107300;28;20186;-63
2022/12/27 03:52:56;;;;;;;57.63;45.60;;;;;;;5.20;100.00;102088.69;2110732;28;20220;-63
2022/12/27 03:54:06;;;;;;;59.15;45.75;;;;;;;5.29;100.00;102080.22;2108297;28;20288;-63
2022/12/27 03:55:07;;;;;;;61.92;47.80;;;;;;;4.98;100.00;102034.41;2111059;28;20184;-63
2022/12/27 03:56:10;;;;;;;64.53;49.38;;;;;;;5.17;100.00;102083.09;2114698;28;20216;-63
2022/12/27 03:57:16;;;;;;;59.03;47.53;;;;;;;5.15;100.00;102093.66;2111827;28;20215;-63
2022/12/27 03:58:17;;;;;;;63.30;49.38;;;;;;;5.20;100.00;102096.94;2106959;28;20209;-63
2022/12/27 03:59:17;;;;;;;69.67;54.30;;;;;;;5.21;100.00;102100.44;2107008;28;20211;-63
2022/12/27 04:00:18;;;;;;;66.53;53.50;;;;;;;5.24;100.00;102095.03;2109899;28;20190;-63
2022/12/27 04:01:18;;;;;;;68.27;53.60;;;;;;;5.29;100.00;102097.50;2115206;28;20186;-63
2022/12/27 04:02:19;;;;;;;68.77;54.13;;;;;;;5.33;100.00;102103.09;2107124;28;20188;-63
2022/12/27 04:03:19;;;;;;;68.27;54.40;;;;;;;5.39;100.00;102102.41;2106917;28;20220;-63
2022/12/27 04:04:20;;;;;;;68.77;52.93;;;;;;;5.41;100.00;102108.38;2112471;28;20249;-63
2022/12/27 04:05:20;;;;;;;68.87;54.67;;;;;;;5.43;100.00;102108.78;2115364;28;20632;-63
2022/12/27 04:06:20;;;;;;;66.83;54.47;;;;;;;5.45;100.00;102097.44;2115390;28;20181;-63
2022/12/27 04:07:21;;;;;;;61.87;51.70;;;;;;;5.37;100.00;102082.75;2113401;28;20170;-63
2022/12/27 04:34:41;;;;;;;52.03;43.28;;;;;;;5.99;100.00;102059.56;2106909;28;20167;-63
2022/12/27 04:35:42;;;;;;;55.20;45.10;;;;;;;5.95;100.00;102059.53;2114499;28;20170;-63
2022/12/27 04:36:42;;;;;;;49.53;42.40;;;;;;;5.97;100.00;102072.91;2115173;28;20603;-63
2022/12/27 04:37:42;;;;;;;54.23;43.80;;;;;;;5.93;100.00;102059.09;2109747;28;20223;-63
2022/12/27 04:38:43;;;;;;;54.07;42.80;;;;;;;6.01;100.00;102071.81;2106764;28;20194;-63
2022/12/27 04:55:56;;;;;;;47.40;39.55;;;;;;;5.86;100.00;102069.19;2115125;28;20640;-63
2022/12/27 04:56:57;;;;;;;50.00;40.15;;;;;;;5.85;100.00;102062.88;2111962;28;20296;-63
2022/12/27 04:57:57;;;;;;;53.53;41.23;;;;;;;5.85;100.00;102062.09;2106539;28;20178;-63
2022/12/27 05:03:00;;;;;;;52.70;41.47;;;;;;;5.55;100.00;102056.38;2106263;28;20205;-63
2022/12/27 05:04:01;;;;;;;51.45;41.15;;;;;;;5.03;100.00;101975.66;2108068;28;20625;-63
2022/12/27 05:05:02;;;;;;;52.80;43.03;;;;;;;5.67;100.00;102055.44;2115011;28;20177;-63
2022/12/27 05:06:03;;;;;;;51.97;43.67;;;;;;;5.53;100.00;102038.69;2114632;28;20209;-63
2022/12/27 05:14:00;;;;;;;55.80;44.83;;;;;;;5.64;100.00;102051.47;2106743;28;20174;-63
2022/12/27 05:15:00;;;;;;;54.55;43.90;;;;;;;5.39;100.00;102022.69;2106717;28;20184;-64
2022/12/27 05:16:01;;;;;;;56.03;44.70;;;;;;;5.56;100.00;102048.94;2114845;28;20178;-63
2022/12/27 05:17:01;;;;;;;57.47;45.57;;;;;;;5.55;100.00;102048.13;2114961;28;20193;-63
2022/12/27 05:18:02;;;;;;;57.50;47.07;;;;;;;5.48;100.00;102053.50;2108547;28;20186;-63
2022/12/27 05:19:07;;;;;;;61.90;47.43;;;;;;;5.04;100.00;101993.72;2106361;28;20217;-63
2022/12/27 05:20:08;;;;;;;60.97;47.40;;;;;;;5.22;100.00;102058.88;2110924;28;20575;-63
2022/12/27 05:21:09;;;;;;;63.20;48.40;;;;;;;4.46;100.00;101948.16;2114553;27;20669;-63
2022/12/27 05:26:07;;;;;;;56.33;46.90;;;;;;;5.21;100.00;102068.28;2111579;28;20212;-63
2022/12/27 05:27:07;;;;;;;54.73;44.77;;;;;;;5.24;100.00;102070.28;2114138;28;20204;-63
2022/12/27 05:28:10;;;;;;;51.60;44.13;;;;;;;5.25;100.00;102054.59;2109781;28;20635;-63
2022/12/27 05:29:11;;;;;;;55.53;45.53;;;;;;;5.27;100.00;102061.34;2106352;28;20603;-63
2022/12/27 05:30:11;;;;;;;59.90;47.40;;;;;;;5.31;100.00;102055.91;2105861;28;20284;-63
2022/12/27 05:31:11;;;;;;;54.13;45.60;;;;;;;5.33;100.00;102054.38;2111595;28;20710;-63
2022/12/27 05:32:12;;;;;;;54.80;44.33;;;;;;;5.35;100.00;102054.03;2114595;28;20192;-63
2022/12/27 05:33:12;;;;;;;57.97;47.90;;;;;;;5.25;100.00;102043.63;2114398;28;20221;-63
2022/12/27 05:34:14;;;;;;;56.03;47.60;;;;;;;5.35;100.00;102046.59;2107456;28;20214;-63
2022/12/27 05:35:15;;;;;;;57.67;47.10;;;;;;;5.16;100.00;102016.34;2106314;28;20280;-63
2022/12/27 05:36:15;;;;;;;55.60;44.80;;;;;;;5.18;100.00;102019.53;2112009;28;20235;-63
2022/12/27 05:37:15;;;;;;;54.07;44.00;;;;;;;5.41;100.00;102044.31;2111032;28;20199;-63
2022/12/27 05:38:16;;;;;;;55.83;46.53;;;;;;;4.94;100.00;101970.38;2106196;28;20618;-63
2022/12/27 05:39:16;;;;;;;53.23;45.20;;;;;;;5.43;100.00;102042.03;2106130;28;20178;-63
2022/12/27 05:40:17;;;;;;;56.77;47.47;;;;;;;5.40;100.00;102040.00;2106130;28;20179;-63
2022/12/27 05:41:17;;;;;;;59.33;49.13;;;;;;;5.27;100.00;102030.28;2111862;28;20224;-63
2022/12/27 05:42:18;;;;;;;61.23;49.87;;;;;;;5.29;100.00;102047.22;2114558;28;20670;-63
2022/12/27 05:43:18;;;;;;;62.70;51.57;;;;;;;5.25;100.00;102052.66;2108352;28;20182;-63
2022/12/27 05:44:18;;;;;;;61.10;52.13;;;;;;;5.27;100.00;102053.09;2114559;28;20220;-63
2022/12/27 05:45:19;;;;;;;58.53;51.37;;;;;;;5.24;100.00;102045.56;2110960;28;20193;-63
2022/12/27 05:46:20;;;;;;;59.53;51.33;;;;;;;5.28;100.00;102067.63;2111922;28;20651;-63
2022/12/27 05:47:21;;;;;;;59.97;51.80;;;;;;;5.37;100.00;102071.75;2113006;28;20577;-63
2022/12/27 05:48:21;;;;;;;61.30;52.57;;;;;;;4.77;100.00;101959.81;2106428;28;20213;-63
2022/12/27 05:49:22;;;;;;;58.67;50.20;;;;;;;5.41;100.00;102058.88;2114555;28;20185;-63
2022/12/27 05:50:22;;;;;;;61.17;49.60;;;;;;;5.43;100.00;102064.03;2114622;28;20223;-63
2022/12/27 05:51:23;;;;;;;63.87;51.13;;;;;;;5.46;100.00;102063.28;2113827;28;20242;-64
2022/12/27 05:52:23;;;;;;;58.97;49.93;;;;;;;5.45;100.00;102068.00;2114084;28;20189;-63
2022/12/27 05:53:24;;;;;;;57.70;49.27;;;;;;;5.48;100.00;102070.00;2114543;28;20200;-63
2022/12/27 05:54:24;;;;;;;59.90;48.00;;;;;;;5.53;100.00;102072.47;2111619;28;20182;-63
2022/12/27 05:55:25;;;;;;;58.23;48.27;;;;;;;5.39;100.00;102055.69;2106089;28;20206;-63
2022/12/27 05:56:25;;;;;;;55.77;47.43;;;;;;;5.29;100.00;102044.47;2112155;28;20258;-63
2022/12/27 05:57:26;;;;;;;59.90;50.17;;;;;;;4.74;100.00;101982.50;2114766;28;20179;-63
2022/12/27 05:58:27;;;;;;;63.53;50.60;;;;;;;5.25;100.00;102069.16;2106763;28;20284;-63
2022/12/27 05:59:27;;;;;;;61.90;50.85;;;;;;;4.96;100.00;102033.19;2112841;28;20186;-64
2022/12/27 06:00:28;;;;;;;57.10;49.57;;;;;;;5.08;100.00;102050.31;2114376;28;20276;-63
2022/12/27 06:01:29;;;;;;;61.07;50.10;;;;;;;5.24;100.00;102072.25;2114005;28;20186;-63
2022/12/27 06:02:29;;;;;;;59.47;49.73;;;;;;;5.31;100.00;102075.94;2110793;28;20621;-63
2022/12/27 06:03:30;;;;;;;64.50;51.77;;;;;;;5.34;100.00;102075.22;2106138;28;20257;-64
2022/12/27 06:04:30;;;;;;;57.13;47.97;;;;;;;5.39;100.00;102085.13;2111652;28;20188;-63
2022/12/27 06:05:31;;;;;;;62.87;51.57;;;;;;;5.45;100.00;102072.69;2114767;28;20272;-63
2022/12/27 06:06:33;;;;;;;62.47;49.60;;;;;;;5.41;100.00;102072.63;2112562;28;20209;-63
2022/12/27 06:07:35;;;;;;;56.45;48.17;;;;;;;5.34;100.00;102079.94;2114430;28;20221;-63
2022/12/27 06:08:37;;;;;;;56.88;48.17;;;;;;;4.69;100.00;101951.78;2108221;28;20573;-63
2022/12/27 06:09:38;;;;;;;62.63;51.17;;;;;;;5.45;100.00;102076.25;2105979;28;20202;-63
2022/12/27 06:10:39;;;;;;;57.13;49.27;;;;;;;5.46;100.00;102071.53;2105872;28;20182;-63
2022/12/27 06:11:39;;;;;;;57.17;48.63;;;;;;;5.46;100.00;102077.84;2112654;28;20574;-63
2022/12/27 06:12:39;;;;;;;59.53;49.80;;;;;;;5.40;100.00;102082.03;2112143;28;20216;-64
2022/12/27 06:13:43;;;;;;;55.17;48.73;;;;;;;5.36;100.00;102085.84;2105920;28;20169;-63
2022/12/27 06:14:44;;;;;;;57.58;48.97;;;;;;;5.40;100.00;102084.78;2106128;28;20636;-63
2022/12/27 06:15:44;;;;;;;58.10;49.50;;;;;;;5.46;100.00;102077.84;2106088;28;20587;-63
2022/12/27 06:16:44;;;;;;;57.80;47.87;;;;;;;5.53;100.00;102072.47;2113574;28;20246;-63
2022/12/27 06:17:45;;;;;;;60.67;49.40;;;;;;;5.44;100.00;102066.38;2114376;28;20186;-63
2022/12/27 06:18:46;;;;;;;59.07;49.37;;;;;;;5.54;100.00;102081.50;2109238;28;20194;-63
2022/12/27 06:19:46;;;;;;;62.67;49.10;;;;;;;5.48;100.00;102085.72;2105887;28;20669;-63
2022/12/27 06:20:46;;;;;;;57.37;48.97;;;;;;;5.45;100.00;102076.25;2105858;28;20178;-63
2022/12/27 06:21:47;;;;;;;59.00;50.03;;;;;;;5.45;100.00;102087.25;2111989;28;20186;-63
2022/12/27 06:22:48;;;;;;;57.73;49.93;;;;;;;5.45;100.00;102084.50;2105401;28;20263;-63
2022/12/27 06:23:49;;;;;;;63.93;51.67;;;;;;;5.46;100.00;102088.84;2114449;28;20430;-63
2022/12/27 06:24:49;;;;;;;59.47;50.87;;;;;;;5.44;100.00;102088.38;2114210;28;20268;-63
2022/12/27 06:25:49;;;;;;;60.33;51.43;;;;;;;5.48;100.00;102080.22;2108118;28;20660;-63
2022/12/27 06:26:50;;;;;;;60.07;51.07;;;;;;;5.47;100.00;102084.09;2113608;28;20209;-63
2022/12/27 06:27:50;;;;;;;60.20;52.23;;;;;;;5.59;100.00;102092.22;2110504;28;20195;-63
2022/12/27 06:28:51;;;;;;;61.10;50.47;;;;;;;5.68;100.00;102093.56;2105753;28;20214;-63
2022/12/27 06:29:52;;;;;;;58.13;49.10;;;;;;;5.65;100.00;102075.03;2105484;28;20201;-63